Ritchie, South Africa
Current Conditions -  °F | °C
As of 10:00 PM on Thursday 29 Jan 2015 (Local Time) from FAKM Reporting Station
NA  
Wind Chill: 77°   Ceiling: NA
Heat Index: 78°   Visibility: NA
Dew Point: 41°   Wind: 3mph
Humidity: 28%   Direction: 120°ESE
Pressure: 30"   Gusts: NA
Location:  29.04°S, 24.6°E
Report Text: FAKM 292000Z AUTO 12003KT //// // ////// 25/05 Q1016
Loading
Personal Weather Stations






























Interactive Weather Map New forecast layout! Learn more

10-Day Weather Forecast

Advertisements
Track Severe Weather on mobile